createdAt,value
2023-04-29T00:01:59.224Z,8.40
2023-04-29T00:04:10.228Z,8.48
2023-04-29T00:06:18.761Z,7.35
2023-04-29T00:08:26.941Z,7.82
2023-04-29T00:10:35.351Z,6.93
2023-04-29T00:12:43.220Z,7.30
2023-04-29T00:14:51.072Z,8.95
2023-04-29T00:16:59.780Z,7.38
2023-04-29T00:19:10.433Z,6.85
2023-04-29T00:21:18.390Z,7.28
2023-04-29T00:23:26.892Z,6.28
2023-04-29T00:25:35.523Z,7.70
2023-04-29T00:27:43.634Z,7.07
2023-04-29T00:29:51.762Z,7.47
2023-04-29T00:32:00.361Z,8.13
2023-04-29T00:34:11.108Z,7.85
2023-04-29T00:36:19.156Z,6.97
2023-04-29T00:38:30.183Z,7.07
2023-04-29T00:40:38.092Z,7.35
2023-04-29T00:42:46.196Z,6.75
2023-04-29T00:44:54.425Z,6.65
2023-04-29T00:47:02.572Z,6.93
2023-04-29T00:49:14.359Z,7.55
2023-04-29T00:51:23.998Z,7.15
2023-04-29T00:53:33.131Z,7.70
2023-04-29T00:55:42.097Z,7.13
2023-04-29T00:57:52.810Z,7.78
2023-04-29T01:00:01.453Z,7.35
2023-04-29T01:02:09.745Z,7.13
2023-04-29T01:04:20.974Z,6.53
2023-04-29T01:06:38.262Z,7.10
2023-04-29T01:08:55.798Z,6.85
2023-04-29T01:11:11.370Z,6.70
2023-04-29T01:13:28.354Z,7.05
2023-04-29T01:15:42.685Z,8.68
2023-04-29T01:17:57.516Z,9.43
2023-04-29T01:20:09.900Z,9.80
2023-04-29T01:22:19.364Z,10.50
2023-04-29T01:24:30.189Z,9.85
2023-04-29T01:26:38.436Z,8.50
2023-04-29T01:29:11.405Z,8.93
2023-04-29T01:31:24.741Z,7.90
2023-04-29T01:33:42.390Z,7.45
2023-04-29T01:36:04.052Z,6.60
2023-04-29T01:38:23.867Z,6.60
2023-04-29T01:40:41.554Z,6.25
2023-04-29T01:43:04.682Z,7.57
2023-04-29T01:45:19.483Z,7.18
2023-04-29T01:47:28.598Z,6.75
2023-04-29T01:49:39.985Z,7.20
2023-04-29T01:51:48.335Z,6.60
2023-04-29T01:53:57.348Z,6.07
2023-04-29T01:56:09.336Z,5.40
2023-04-29T01:58:46.596Z,6.00
2023-04-29T02:01:13.207Z,5.80
2023-04-29T02:03:21.678Z,5.90
2023-04-29T02:05:34.565Z,5.53
2023-04-29T02:07:44.914Z,5.35
2023-04-29T02:09:53.602Z,4.88
2023-04-29T02:12:06.968Z,5.93
2023-04-29T02:14:15.067Z,6.82
2023-04-29T02:16:24.196Z,6.55
2023-04-29T02:18:39.064Z,6.15
2023-04-29T02:20:47.824Z,6.75
2023-04-29T02:22:56.105Z,6.22
2023-04-29T02:25:04.130Z,6.20
2023-04-29T02:27:15.733Z,7.13
2023-04-29T02:29:23.650Z,6.50
2023-04-29T02:31:31.933Z,6.28
2023-04-29T02:33:39.918Z,5.60
2023-04-29T02:35:50.884Z,5.95
2023-04-29T02:37:58.724Z,8.23
2023-04-29T02:40:07.698Z,6.20
2023-04-29T02:42:18.483Z,5.80
2023-04-29T02:44:26.445Z,6.20
2023-04-29T02:46:36.286Z,6.78
2023-04-29T02:48:44.564Z,6.20
2023-04-29T02:50:53.514Z,6.40
2023-04-29T02:53:01.843Z,7.45
2023-04-29T02:55:10.781Z,7.63
2023-04-29T02:57:21.786Z,9.95
2023-04-29T02:59:29.614Z,9.18
2023-04-29T03:01:38.744Z,8.50
2023-04-29T03:03:46.917Z,8.98
2023-04-29T03:05:55.179Z,9.55
2023-04-29T03:08:04.976Z,8.75
2023-04-29T03:10:13.669Z,9.10
2023-04-29T03:12:24.914Z,8.85
2023-04-29T03:14:32.886Z,8.27
2023-04-29T03:16:40.855Z,7.70
2023-04-29T03:18:48.843Z,8.77
2023-04-29T03:20:57.149Z,8.40
2023-04-29T03:23:05.346Z,8.02
2023-04-29T03:25:13.534Z,9.77
2023-04-29T03:27:25.325Z,9.77
2023-04-29T03:29:33.401Z,9.45
2023-04-29T03:31:42.112Z,9.35
2023-04-29T03:33:51.242Z,9.07
2023-04-29T03:35:59.338Z,8.95
2023-04-29T03:38:18.108Z,9.70
2023-04-29T03:40:26.777Z,8.60
2023-04-29T03:42:37.194Z,10.35
2023-04-29T03:44:45.408Z,9.45
2023-04-29T03:46:53.328Z,9.00
2023-04-29T03:49:03.413Z,10.35
2023-04-29T03:51:12.073Z,9.10
2023-04-29T03:53:21.056Z,8.45
2023-04-29T03:55:29.092Z,9.00
2023-04-29T03:57:42.202Z,8.90
2023-04-29T03:59:52.143Z,9.13
2023-04-29T04:02:00.246Z,11.50
2023-04-29T04:04:09.108Z,8.18
2023-04-29T04:06:20.392Z,9.40
2023-04-29T04:08:33.996Z,9.18
2023-04-29T04:10:50.605Z,9.45
2023-04-29T04:13:12.922Z,9.82
2023-04-29T04:15:22.789Z,10.05
2023-04-29T04:17:30.884Z,10.15
2023-04-29T04:19:40.414Z,10.38
2023-04-29T04:21:48.538Z,10.15
2023-04-29T04:23:56.638Z,10.00
2023-04-29T04:26:05.656Z,11.13
2023-04-29T04:28:36.508Z,12.32
2023-04-29T04:30:49.764Z,10.70
2023-04-29T04:32:57.857Z,11.25
2023-04-29T04:35:06.787Z,10.73
2023-04-29T04:37:14.872Z,11.60
2023-04-29T04:39:27.287Z,11.02
2023-04-29T04:41:40.075Z,9.73
2023-04-29T04:43:51.691Z,9.93
2023-04-29T04:46:14.535Z,10.25
2023-04-29T04:48:43.197Z,10.05
2023-04-29T04:50:54.363Z,9.63
2023-04-29T04:53:02.502Z,7.78
2023-04-29T04:55:34.295Z,8.95
2023-04-29T04:57:44.102Z,8.43
2023-04-29T04:59:55.281Z,7.07
2023-04-29T05:02:03.548Z,6.40
2023-04-29T05:04:11.706Z,7.78
2023-04-29T05:06:19.819Z,6.20
2023-04-29T05:08:29.684Z,5.60
2023-04-29T05:10:41.730Z,4.80
2023-04-29T05:12:49.689Z,4.95
2023-04-29T05:15:00.236Z,5.65
2023-04-29T05:17:12.905Z,4.85
2023-04-29T05:19:21.428Z,5.63
2023-04-29T05:21:29.420Z,5.10
2023-04-29T05:23:38.750Z,5.18
2023-04-29T05:25:46.882Z,5.18
2023-04-29T05:27:58.137Z,5.70
2023-04-29T05:30:12.234Z,6.03
2023-04-29T05:32:20.465Z,5.88
2023-04-29T05:34:28.418Z,7.78
2023-04-29T05:36:37.859Z,6.05
2023-04-29T05:38:46.278Z,6.43
2023-04-29T05:40:54.224Z,5.95
2023-04-29T05:43:34.402Z,5.97
2023-04-29T05:45:44.983Z,5.43
2023-04-29T05:47:53.020Z,6.22
2023-04-29T05:50:01.540Z,6.07
2023-04-29T05:52:11.275Z,7.00
2023-04-29T05:54:25.055Z,7.00
2023-04-29T05:56:35.180Z,7.22
2023-04-29T05:58:43.115Z,7.47
2023-04-29T06:00:53.660Z,8.43
2023-04-29T06:03:07.511Z,7.60
2023-04-29T06:05:15.850Z,8.52
2023-04-29T06:07:35.261Z,8.75
2023-04-29T06:09:52.773Z,7.70
2023-04-29T06:12:01.078Z,8.25
2023-04-29T06:14:09.021Z,7.20
2023-04-29T06:16:19.853Z,7.32
2023-04-29T06:18:28.067Z,7.95
2023-04-29T06:20:37.599Z,6.50
2023-04-29T06:22:45.861Z,6.00
2023-04-29T06:24:53.740Z,6.88
2023-04-29T06:27:08.571Z,5.80
2023-04-29T06:29:16.446Z,6.00
2023-04-29T06:31:28.067Z,6.43
2023-04-29T06:33:43.870Z,5.72
2023-04-29T06:35:53.138Z,5.40
2023-04-29T06:38:19.844Z,5.73
2023-04-29T06:40:46.752Z,7.90
2023-04-29T06:43:22.370Z,5.67
2023-04-29T06:45:58.982Z,5.80
2023-04-29T06:48:23.902Z,5.40
2023-04-29T06:50:34.488Z,5.00
2023-04-29T06:52:42.409Z,5.45
2023-04-29T06:54:54.166Z,5.30
2023-04-29T06:57:02.409Z,5.70
2023-04-29T06:59:12.406Z,8.55
2023-04-29T07:01:20.613Z,5.97
2023-04-29T07:03:31.444Z,6.63
2023-04-29T07:05:41.019Z,6.30
2023-04-29T07:07:49.868Z,4.88
2023-04-29T07:09:59.621Z,5.95
2023-04-29T07:12:08.719Z,4.85
2023-04-29T07:14:16.831Z,5.50
2023-04-29T07:16:26.875Z,6.70
2023-04-29T07:18:37.500Z,6.45
2023-04-29T07:20:47.568Z,6.38
2023-04-29T07:22:55.801Z,6.45
2023-04-29T07:25:04.621Z,5.55
2023-04-29T07:27:13.108Z,5.43
2023-04-29T07:29:21.001Z,6.10
2023-04-29T07:31:29.706Z,5.10
2023-04-29T07:33:41.779Z,5.85
2023-04-29T07:35:50.912Z,4.95
2023-04-29T07:37:59.739Z,4.97
2023-04-29T07:40:09.277Z,5.25
2023-04-29T07:42:19.664Z,5.45
2023-04-29T07:44:27.895Z,5.32
2023-04-29T07:46:36.002Z,5.70
2023-04-29T07:48:47.054Z,6.50
2023-04-29T07:50:54.954Z,4.40
2023-04-29T07:53:03.146Z,5.45
2023-04-29T07:55:12.574Z,4.75
2023-04-29T07:57:20.469Z,4.18
2023-04-29T07:59:28.397Z,4.45
2023-04-29T08:01:36.797Z,3.65
2023-04-29T08:03:47.607Z,3.97
2023-04-29T08:05:58.346Z,4.28
2023-04-29T08:08:06.315Z,3.80
2023-04-29T08:10:14.385Z,4.03
2023-04-29T08:12:22.436Z,4.40
2023-04-29T08:14:30.353Z,4.40
2023-04-29T08:16:40.041Z,4.63
2023-04-29T08:18:50.748Z,4.10
2023-04-29T08:21:00.299Z,3.67
2023-04-29T08:23:08.305Z,3.90
2023-04-29T08:25:17.189Z,3.72
2023-04-29T08:27:25.222Z,4.20
2023-04-29T08:29:35.538Z,3.78
2023-04-29T08:31:43.604Z,4.40
2023-04-29T08:33:54.223Z,4.07
2023-04-29T08:36:03.931Z,3.70
2023-04-29T08:38:14.061Z,3.72
2023-04-29T08:40:24.827Z,3.78
2023-04-29T08:42:37.886Z,3.28
2023-04-29T08:44:47.279Z,4.20
2023-04-29T08:46:56.095Z,4.22
2023-04-29T08:49:08.223Z,4.32
2023-04-29T08:51:16.316Z,4.60
2023-04-29T08:53:24.325Z,4.40
2023-04-29T08:55:32.725Z,3.85
2023-04-29T08:57:41.909Z,3.60
2023-04-29T08:59:50.406Z,4.25
2023-04-29T09:02:01.781Z,3.22
2023-04-29T09:04:19.579Z,4.45
2023-04-29T09:06:27.501Z,4.22
2023-04-29T09:08:36.481Z,4.00
2023-04-29T09:10:45.967Z,3.95
2023-04-29T09:12:53.745Z,3.88
2023-04-29T09:15:01.800Z,4.03
2023-04-29T09:17:10.828Z,4.63
2023-04-29T09:19:37.425Z,4.90
2023-04-29T09:21:56.904Z,4.47
2023-04-29T09:24:06.696Z,5.50
2023-04-29T09:26:14.656Z,5.85
2023-04-29T09:28:23.308Z,5.82
2023-04-29T09:30:32.241Z,5.70
2023-04-29T09:32:41.290Z,5.03
2023-04-29T09:34:52.201Z,5.85
2023-04-29T09:37:00.287Z,5.40
2023-04-29T09:39:12.073Z,5.25
2023-04-29T09:41:21.004Z,5.30
2023-04-29T09:43:29.121Z,5.40
2023-04-29T09:45:38.393Z,5.00
2023-04-29T09:47:47.109Z,5.13
2023-04-29T09:50:16.684Z,4.72
2023-04-29T09:52:24.494Z,5.22
2023-04-29T09:54:33.574Z,5.05
2023-04-29T09:56:52.744Z,5.53
2023-04-29T09:59:11.264Z,5.43
2023-04-29T10:01:21.819Z,4.95
2023-04-29T10:03:34.676Z,4.57
2023-04-29T10:05:47.686Z,5.88
2023-04-29T10:07:55.917Z,5.80
2023-04-29T10:10:05.836Z,4.93
2023-04-29T10:12:14.972Z,5.47
2023-04-29T10:14:27.995Z,5.00
2023-04-29T10:16:42.894Z,4.25
2023-04-29T10:18:55.461Z,5.10
2023-04-29T10:21:09.765Z,4.30
2023-04-29T10:23:18.725Z,3.90
2023-04-29T10:25:28.245Z,3.83
2023-04-29T10:27:40.206Z,3.50
2023-04-29T10:29:48.823Z,5.13
2023-04-29T10:31:58.624Z,2.80
2023-04-29T10:34:08.370Z,3.23
2023-04-29T10:36:20.304Z,4.07
2023-04-29T10:38:32.716Z,2.73
2023-04-29T10:40:45.787Z,2.37
2023-04-29T10:42:56.390Z,2.83
2023-04-29T10:45:27.165Z,3.23
2023-04-29T10:47:35.506Z,3.60
2023-04-29T10:49:43.969Z,3.70
2023-04-29T10:51:54.603Z,3.47
2023-04-29T10:54:04.462Z,3.53
2023-04-29T10:56:13.674Z,3.40
2023-04-29T10:58:45.245Z,3.30
2023-04-29T11:00:53.279Z,4.70
2023-04-29T11:03:03.544Z,3.70
2023-04-29T11:05:13.272Z,2.90
2023-04-29T11:07:32.959Z,3.73
2023-04-29T11:09:40.969Z,3.20
2023-04-29T11:12:03.677Z,3.40
2023-04-29T11:14:13.405Z,3.60
2023-04-29T11:16:31.254Z,4.55
2023-04-29T11:18:40.458Z,4.15
2023-04-29T11:21:15.792Z,4.30
2023-04-29T11:23:28.588Z,4.35
2023-04-29T11:25:39.396Z,4.97
2023-04-29T11:27:49.418Z,5.30
2023-04-29T11:29:59.092Z,4.88
2023-04-29T11:32:07.616Z,6.43
2023-04-29T11:34:15.569Z,5.15
2023-04-29T11:36:23.537Z,3.60
2023-04-29T11:38:35.572Z,4.40
2023-04-29T11:40:45.826Z,4.45
2023-04-29T11:42:53.761Z,3.85
2023-04-29T11:45:02.086Z,4.05
2023-04-29T11:47:10.735Z,3.78
2023-04-29T11:49:18.746Z,4.55
2023-04-29T11:51:27.097Z,3.63
2023-04-29T11:53:37.923Z,3.60
2023-04-29T11:55:46.335Z,3.40
2023-04-29T11:57:54.277Z,4.35
2023-04-29T12:00:02.414Z,3.05
2023-04-29T12:02:16.332Z,4.00
2023-04-29T12:04:24.891Z,3.63
2023-04-29T12:06:35.525Z,4.15
2023-04-29T12:08:46.230Z,3.45
2023-04-29T12:10:55.613Z,3.20
2023-04-29T12:13:03.709Z,3.90
2023-04-29T12:15:13.204Z,3.05
2023-04-29T12:17:21.610Z,3.55
2023-04-29T12:19:29.578Z,4.10
2023-04-29T12:21:37.570Z,4.22
2023-04-29T12:23:49.449Z,4.30
2023-04-29T12:25:59.134Z,5.80
2023-04-29T12:28:08.520Z,4.47
2023-04-29T12:30:17.362Z,5.00
2023-04-29T12:32:27.098Z,5.93
2023-04-29T12:34:36.796Z,6.32
2023-04-29T12:36:46.560Z,7.00
2023-04-29T12:38:57.450Z,6.22
2023-04-29T12:41:08.158Z,5.53
2023-04-29T12:43:16.513Z,4.93
2023-04-29T12:45:33.335Z,5.65
2023-04-29T12:47:42.548Z,6.53
2023-04-29T12:49:51.031Z,6.13
2023-04-29T12:51:59.035Z,5.30
2023-04-29T12:54:09.692Z,5.40
2023-04-29T12:56:20.195Z,5.32
2023-04-29T12:58:31.481Z,6.55
2023-04-29T13:00:40.281Z,7.40
2023-04-29T13:02:48.523Z,5.85
2023-04-29T13:04:57.180Z,5.93
2023-04-29T13:07:05.981Z,6.43
2023-04-29T13:09:18.907Z,5.68
2023-04-29T13:11:32.548Z,5.97
2023-04-29T13:13:43.488Z,7.70
2023-04-29T13:15:51.563Z,6.28
2023-04-29T13:17:59.839Z,7.18
2023-04-29T13:20:11.106Z,7.70
2023-04-29T13:22:19.913Z,7.07
2023-04-29T13:24:30.486Z,9.73
2023-04-29T13:26:39.642Z,7.63
2023-04-29T13:28:47.676Z,7.53
2023-04-29T13:30:55.680Z,8.32
2023-04-29T13:33:09.819Z,8.15
2023-04-29T13:35:20.109Z,7.82
2023-04-29T13:37:28.074Z,8.15
2023-04-29T13:39:39.690Z,7.53
2023-04-29T13:41:47.739Z,7.47
2023-04-29T13:43:58.012Z,7.03
2023-04-29T13:46:07.855Z,7.47
2023-04-29T13:55:50.015Z,7.82
2023-04-29T13:59:50.644Z,7.22
2023-04-29T14:04:11.658Z,8.65
2023-04-29T14:06:19.909Z,8.70
2023-04-29T14:08:28.089Z,8.60
2023-04-29T14:10:38.756Z,7.80
2023-04-29T14:12:46.690Z,9.70
2023-04-29T14:14:59.586Z,10.27
2023-04-29T14:17:08.462Z,8.43
2023-04-29T14:19:17.023Z,8.30
2023-04-29T14:21:25.455Z,8.15
2023-04-29T14:23:33.388Z,9.05
2023-04-29T14:25:46.470Z,8.30
2023-04-29T14:27:54.701Z,12.18
2023-04-29T14:30:05.022Z,8.18
2023-04-29T14:32:13.327Z,8.45
2023-04-29T14:34:21.346Z,8.63
2023-04-29T14:36:32.872Z,9.60
2023-04-29T14:38:42.077Z,8.85
2023-04-29T14:40:55.829Z,8.15
2023-04-29T14:43:04.855Z,8.18
2023-04-29T14:45:13.710Z,9.10
2023-04-29T14:47:21.853Z,8.15
2023-04-29T14:49:31.688Z,8.07
2023-04-29T14:51:39.827Z,9.15
2023-04-29T14:53:47.679Z,9.38
2023-04-29T14:55:58.662Z,9.27
2023-04-29T14:58:06.486Z,8.75
2023-04-29T15:00:18.320Z,8.65
2023-04-29T15:02:26.293Z,7.80
2023-04-29T15:04:34.731Z,9.00
2023-04-29T15:06:43.382Z,8.57
2023-04-29T15:08:51.598Z,8.75
2023-04-29T15:11:02.215Z,8.40
2023-04-29T15:13:10.357Z,9.20
2023-04-29T15:15:18.340Z,9.20
2023-04-29T15:17:26.330Z,8.65
2023-04-29T15:19:34.303Z,8.50
2023-04-29T15:21:45.043Z,11.15
2023-04-29T15:23:55.053Z,8.55
2023-04-29T15:26:07.210Z,9.55
2023-04-29T15:28:15.333Z,8.52
2023-04-29T15:30:23.270Z,8.25
2023-04-29T15:32:34.336Z,8.80
2023-04-29T15:34:42.262Z,9.13
2023-04-29T15:36:51.525Z,8.45
2023-04-29T15:39:00.208Z,8.48
2023-04-29T15:41:10.895Z,8.50
2023-04-29T15:43:18.897Z,8.88
2023-04-29T15:45:27.713Z,9.43
2023-04-29T15:47:35.677Z,8.65
2023-04-29T15:49:47.465Z,9.32
2023-04-29T15:51:55.715Z,7.90
2023-04-29T15:54:05.359Z,9.30
2023-04-29T15:56:16.124Z,9.63
2023-04-29T15:58:23.993Z,8.20
2023-04-29T16:00:34.001Z,9.55
2023-04-29T16:02:43.879Z,9.10
2023-04-29T16:04:52.937Z,8.30
2023-04-29T16:07:01.658Z,9.70
2023-04-29T16:09:12.378Z,10.63
2023-04-29T16:11:22.980Z,10.55
2023-04-29T16:13:30.904Z,9.00
2023-04-29T16:15:39.900Z,10.32
2023-04-29T16:17:48.091Z,8.98
2023-04-29T16:19:56.320Z,11.68
2023-04-29T16:22:04.559Z,9.85
2023-04-29T16:24:12.619Z,10.07
2023-04-29T16:26:26.251Z,16.83
2023-04-29T16:28:34.118Z,15.73
2023-04-29T16:30:42.176Z,14.48
2023-04-29T16:32:52.268Z,11.75
2023-04-29T16:35:02.034Z,10.40
2023-04-29T16:37:12.762Z,9.38
2023-04-29T16:39:22.098Z,10.38
2023-04-29T16:41:32.763Z,7.57
2023-04-29T16:43:40.495Z,8.32
2023-04-29T16:45:49.158Z,8.50
2023-04-29T16:47:57.633Z,10.23
2023-04-29T16:50:08.339Z,8.90
2023-04-29T16:52:16.375Z,9.00
2023-04-29T16:54:27.887Z,9.90
2023-04-29T16:56:38.377Z,7.93
2023-04-29T16:58:48.724Z,7.25
2023-04-29T17:00:59.269Z,9.02
2023-04-29T17:03:08.757Z,8.13
2023-04-29T17:05:18.942Z,8.82
2023-04-29T17:07:27.205Z,7.90
2023-04-29T17:09:35.136Z,7.90
2023-04-29T17:11:45.965Z,9.93
2023-04-29T17:13:53.931Z,9.25
2023-04-29T17:16:03.412Z,11.07
2023-04-29T17:18:12.704Z,9.30
2023-04-29T17:20:22.083Z,8.82
2023-04-29T17:22:30.186Z,9.65
2023-04-29T17:24:40.505Z,8.90
2023-04-29T17:26:52.157Z,11.07
2023-04-29T17:29:00.413Z,7.80
2023-04-29T17:31:10.833Z,7.72
2023-04-29T17:33:18.841Z,8.93
2023-04-29T17:35:26.986Z,8.60
2023-04-29T17:37:35.202Z,8.02
2023-04-29T17:39:43.098Z,8.93
2023-04-29T17:41:53.773Z,8.43
2023-04-29T17:44:01.706Z,9.10
2023-04-29T17:46:09.767Z,8.95
2023-04-29T17:48:19.442Z,8.88
2023-04-29T17:50:27.351Z,8.38
2023-04-29T17:52:35.235Z,8.82
2023-04-29T17:54:43.525Z,9.32
2023-04-29T17:56:54.107Z,9.43
2023-04-29T17:59:05.580Z,9.23
2023-04-29T18:01:13.545Z,10.20
2023-04-29T18:03:21.471Z,8.60
2023-04-29T18:05:29.497Z,8.68
2023-04-29T18:07:37.366Z,10.05
2023-04-29T18:09:45.503Z,10.10
2023-04-29T18:11:56.039Z,9.75
2023-04-29T18:14:04.987Z,11.15
2023-04-29T18:16:13.438Z,10.82
2023-04-29T18:18:21.254Z,8.90
2023-04-29T18:20:29.223Z,10.15
2023-04-29T18:22:39.755Z,10.95
2023-04-29T18:24:48.707Z,9.20
2023-04-29T18:26:59.894Z,8.73
2023-04-29T18:29:07.765Z,8.40
2023-04-29T18:31:15.978Z,8.65
2023-04-29T18:33:24.876Z,8.63
2023-04-29T18:35:33.524Z,8.95
2023-04-29T18:37:41.915Z,7.88
2023-04-29T18:39:50.032Z,9.07
2023-04-29T18:42:01.397Z,8.20
2023-04-29T18:44:09.522Z,7.90
2023-04-29T18:46:17.821Z,7.40
2023-04-29T18:48:28.394Z,8.25
2023-04-29T18:50:36.562Z,8.48
2023-04-29T18:52:45.014Z,8.70
2023-04-29T18:54:52.965Z,8.05
2023-04-29T18:57:04.298Z,7.35
2023-04-29T18:59:19.628Z,7.80
2023-04-29T19:01:27.976Z,8.18
2023-04-29T19:03:37.410Z,8.38
2023-04-29T19:05:45.593Z,8.60
2023-04-29T19:08:01.074Z,9.15
2023-04-29T19:10:10.573Z,8.68
2023-04-29T19:12:25.448Z,8.15
2023-04-29T19:14:34.410Z,10.05
2023-04-29T19:16:44.944Z,8.45
2023-04-29T19:18:53.661Z,8.05
2023-04-29T19:21:02.711Z,8.60
2023-04-29T19:23:10.773Z,8.70
2023-04-29T19:25:18.704Z,7.90
2023-04-29T19:27:29.552Z,8.20
2023-04-29T19:29:37.466Z,8.63
2023-04-29T19:31:47.694Z,9.73
2023-04-29T19:33:56.160Z,16.23
2023-04-29T19:36:07.690Z,19.23
2023-04-29T19:38:25.842Z,11.88
2023-04-29T19:40:34.227Z,8.98
2023-04-29T19:42:45.413Z,9.07
2023-04-29T19:44:53.373Z,8.57
2023-04-29T19:47:01.613Z,8.82
2023-04-29T19:49:09.860Z,9.52
2023-04-29T19:51:18.967Z,10.18
2023-04-29T19:53:27.014Z,9.15
2023-04-29T19:55:35.150Z,9.77
2023-04-29T19:57:45.716Z,9.60
2023-04-29T19:59:53.877Z,8.63
2023-04-29T20:02:02.125Z,10.05
2023-04-29T20:04:12.523Z,9.90
2023-04-29T20:06:21.067Z,8.88
2023-04-29T20:08:29.978Z,10.70
2023-04-29T20:10:37.870Z,9.15
2023-04-29T20:12:48.581Z,8.60
2023-04-29T20:14:56.574Z,8.45
2023-04-29T20:17:04.482Z,8.32
2023-04-29T20:19:12.602Z,9.02
2023-04-29T20:21:20.497Z,10.18
2023-04-29T20:23:28.510Z,8.13
2023-04-29T20:25:36.574Z,8.07
2023-04-29T20:27:44.793Z,8.88
2023-04-29T20:29:55.934Z,7.65
2023-04-29T20:32:06.204Z,7.53
2023-04-29T20:34:14.207Z,8.65
2023-04-29T20:36:23.551Z,8.30
2023-04-29T20:38:35.387Z,8.35
2023-04-29T20:40:43.851Z,8.30
2023-04-29T20:42:52.057Z,7.60
2023-04-29T20:45:03.020Z,8.35
2023-04-29T20:47:11.104Z,8.25
2023-04-29T20:49:19.044Z,8.93
2023-04-29T20:51:27.248Z,9.65
2023-04-29T20:53:35.237Z,8.82
2023-04-29T20:55:43.283Z,7.35
2023-04-29T20:57:52.287Z,7.88
2023-04-29T21:00:02.819Z,8.65
2023-04-29T21:02:10.870Z,9.23
2023-04-29T21:04:18.953Z,9.07
2023-04-29T21:06:28.871Z,8.85
2023-04-29T21:08:37.041Z,8.77
2023-04-29T21:10:44.944Z,7.35
2023-04-29T21:12:52.876Z,8.15
2023-04-29T21:15:08.995Z,9.98
2023-04-29T21:17:16.994Z,9.60
2023-04-29T21:19:24.836Z,8.60
2023-04-29T21:21:32.873Z,8.55
2023-04-29T21:23:40.922Z,9.32
2023-04-29T21:25:49.131Z,9.98
2023-04-29T21:27:57.136Z,11.80
2023-04-29T21:30:08.897Z,12.23
2023-04-29T21:32:21.838Z,10.73
2023-04-29T21:34:29.882Z,11.27
2023-04-29T21:36:38.092Z,11.00
2023-04-29T21:38:46.153Z,9.40
2023-04-29T21:40:54.431Z,10.00
2023-04-29T21:43:02.761Z,11.18
2023-04-29T21:45:17.920Z,9.80
2023-04-29T21:47:26.244Z,10.15
2023-04-29T21:49:36.708Z,10.85
2023-04-29T21:51:44.888Z,11.50
2023-04-29T21:53:52.984Z,10.50
2023-04-29T21:56:00.902Z,10.93
2023-04-29T21:58:08.928Z,10.05
2023-04-29T22:00:30.955Z,10.38
2023-04-29T22:02:42.743Z,10.57
2023-04-29T22:04:52.146Z,10.77
2023-04-29T22:07:01.342Z,10.63
2023-04-29T22:09:09.492Z,10.23
2023-04-29T22:11:17.643Z,10.13
2023-04-29T22:13:25.629Z,10.07
2023-04-29T22:15:36.515Z,9.27
2023-04-29T22:17:44.607Z,9.68
2023-04-29T22:19:52.778Z,10.07
2023-04-29T22:22:01.221Z,9.57
2023-04-29T22:24:09.519Z,11.40
2023-04-29T22:26:17.653Z,9.93
2023-04-29T22:28:25.688Z,10.15
2023-04-29T22:30:36.304Z,11.15
2023-04-29T22:32:44.309Z,9.70
2023-04-29T22:34:52.537Z,9.60
2023-04-29T22:37:01.034Z,13.10
2023-04-29T22:39:09.668Z,9.23
2023-04-29T22:41:17.845Z,9.60
2023-04-29T22:43:33.529Z,9.88
2023-04-29T22:45:44.115Z,10.40
2023-04-29T22:47:52.132Z,8.98
2023-04-29T22:50:00.368Z,12.10
2023-04-29T22:52:08.411Z,9.43
2023-04-29T22:54:16.698Z,7.95
2023-04-29T22:56:24.710Z,8.90
2023-04-29T22:58:33.897Z,9.13
2023-04-29T23:00:46.849Z,10.23
2023-04-29T23:02:54.924Z,8.82
2023-04-29T23:05:03.859Z,8.48
2023-04-29T23:07:12.383Z,9.15
2023-04-29T23:09:20.363Z,8.93
2023-04-29T23:11:28.194Z,7.88
2023-04-29T23:13:36.281Z,7.90
2023-04-29T23:15:47.204Z,7.50
2023-04-29T23:17:55.541Z,8.40
2023-04-29T23:20:04.454Z,7.90
2023-04-29T23:22:12.695Z,8.63
2023-04-29T23:24:20.828Z,8.23
2023-04-29T23:26:28.695Z,7.10
2023-04-29T23:28:36.610Z,7.35
2023-04-29T23:30:49.254Z,6.60
2023-04-29T23:32:57.187Z,7.55
2023-04-29T23:35:05.130Z,7.25
2023-04-29T23:37:13.040Z,7.40
2023-04-29T23:39:21.249Z,7.68
2023-04-29T23:41:29.424Z,7.28
2023-04-29T23:43:37.420Z,7.05
2023-04-29T23:45:49.434Z,6.97
2023-04-29T23:47:57.740Z,6.57
2023-04-29T23:50:06.024Z,7.20
2023-04-29T23:52:14.047Z,7.15
2023-04-29T23:54:22.253Z,7.00
2023-04-29T23:56:31.696Z,6.60
2023-04-29T23:58:39.678Z,6.78
